SE Lincoln WX Station Historical Data
 
Daily Summary for December 02, 2021 Units:  English    Metric   Both
Daily Weekly Monthly Yearly
  Current: High: Low: Average:
Temperature: 52.7 °F 53 °F 51.7 °F 52.3 °F
Dew Point: 33.8 °F 33.8 °F 32.8 °F 33.4 °F
Humidity: 48.4% 49% 48% 49%
Wind Speed: 2.4mph 3.6mph 0.6mph 1.9mph
Wind Gust: 5mph 7mph - -
WindSW - - WSW
Pressure: 29.90 in 29.90 in 29.88 in -
Precipitation: 0.00 in      
 
 
Tabular Data for December 02, 2021
Time Temperature Dew Point Pressure Wind Wind Speed Wind Gust Humidity Rainfall Rate (Hourly) solar
00:04 52 °F 33.5 °F 29.89 in WSW 1.3 mph 3 mph 49% 0.00 in 0 W/m2
00:09 51.9 °F 33.1 °F 29.89 in WSW 1.6 mph 3 mph 48.5% 0.00 in 0 W/m2
00:14 51.9 °F 32.9 °F 29.89 in WSW 1.5 mph 3 mph 48.1% 0.00 in 0 W/m2
00:19 51.9 °F 32.8 °F 29.89 in WSW 0.8 mph 3 mph 48% 0.00 in 0 W/m2
00:24 51.9 °F 32.8 °F 29.89 in WSW 1.4 mph 3 mph 48% 0.00 in 0 W/m2
00:29 51.9 °F 33 °F 29.89 in WSW 0.6 mph 3 mph 48.4% 0.00 in 0 W/m2
00:34 51.8 °F 33.3 °F 29.88 in WSW 0.6 mph 2 mph 49% 0.00 in 0 W/m2
00:39 51.7 °F 33.2 °F 29.88 in WSW 1.3 mph 3 mph 49% 0.00 in 0 W/m2
00:44 51.8 °F 33.2 °F 29.88 in WSW 1.4 mph 3 mph 49% 0.00 in 0 W/m2
00:49 51.8 °F 33.3 °F 29.88 in WSW 1.8 mph 4 mph 49% 0.00 in 0 W/m2
00:54 51.8 °F 33.3 °F 29.88 in WSW 1.4 mph 4 mph 49% 0.00 in 0 W/m2
00:59 51.9 °F 33.4 °F 29.88 in WSW 1.6 mph 4 mph 49% 0.00 in 0 W/m2
01:04 51.9 °F 33.4 °F 29.88 in SW 1.9 mph 6 mph 49% 0.00 in 0 W/m2
01:09 52 °F 33.4 °F 29.88 in SW 1.9 mph 4 mph 49% 0.00 in 0 W/m2
01:14 52 °F 33.5 °F 29.88 in SW 1.4 mph 4 mph 49% 0.00 in 0 W/m2
01:19 52 °F 33.5 °F 29.88 in SW 2.6 mph 4 mph 49% 0.00 in 0 W/m2
01:24 52.1 °F 33.6 °F 29.88 in SW 1.9 mph 4 mph 49% 0.00 in 0 W/m2
01:29 52.2 °F 33.6 °F 29.88 in SW 1.1 mph 3 mph 49% 0.00 in 0 W/m2
01:34 52.2 °F 33.6 °F 29.88 in SW 1.7 mph 3 mph 49% 0.00 in 0 W/m2
01:39 52.2 °F 33.6 °F 29.88 in SW 1.5 mph 3 mph 48.9% 0.00 in 0 W/m2
01:44 52.2 °F 33.5 °F 29.88 in WSW 1.8 mph 5 mph 48.7% 0.00 in 0 W/m2
01:49 52.3 °F 33.4 °F 29.88 in WSW 1.9 mph 5 mph 48.5% 0.00 in 0 W/m2
01:54 52.3 °F 33.3 °F 29.88 in WSW 2.2 mph 6 mph 48.1% 0.00 in 0 W/m2
01:59 52.5 °F 33.4 °F 29.89 in West 2.2 mph 5 mph 48% 0.00 in 0 W/m2
02:04 52.6 °F 33.5 °F 29.89 in WSW 2.5 mph 5 mph 48% 0.00 in 0 W/m2
02:09 52.7 °F 33.6 °F 29.88 in WSW 3.6 mph 6 mph 48% 0.00 in 0 W/m2
02:14 52.9 °F 33.8 °F 29.88 in SW 3.6 mph 7 mph 48% 0.00 in 0 W/m2
02:19 53 °F 33.8 °F 29.89 in SW 2.9 mph 7 mph 48% 0.00 in 0 W/m2
02:24 53 °F 33.8 °F 29.89 in SW 2.6 mph 5 mph 48% 0.00 in 0 W/m2
02:29 52.9 °F 33.8 °F 29.89 in SW 2.8 mph 6 mph 48% 0.00 in 0 W/m2
02:34 52.9 °F 33.8 °F 29.89 in WSW 1.8 mph 5 mph 48% 0.00 in 0 W/m2
02:39 52.9 °F 33.8 °F 29.89 in WSW 2.4 mph 5 mph 48% 0.00 in 0 W/m2
02:44 52.9 °F 33.7 °F 29.89 in WSW 1.8 mph 4 mph 48% 0.00 in 0 W/m2
02:49 52.8 °F 33.7 °F 29.90 in WSW 2 mph 5 mph 48% 0.00 in 0 W/m2
02:54 52.7 °F 33.8 °F 29.90 in SW 2.4 mph 5 mph 48.4% 0.00 in 0 W/m2
66th and South
Compliments of Weather Underground - 6.62 mb